TAF CZUM 221940Z 2220/2308 29020G35KT 1/2SM -SN BLSN VV012
TEMPO 2220/2306 1SM -SN OVC020
FM230600 29015G25KT 1SM -SN VV015 RMK FCST BASED ON AUTO OBS. NXT FCST BY 230200Z
From batch tds/tafs/production/2024/4/22/h20_m00_tafs.cache.xml.gz
Issued (30 days ago)
Forecasts
2220/2306 29020G35KT OVX

---
wx_string: "-SN BLSN"
vert_vis_ft: '1200'
fcst_time_to: '2024-04-23T06:00:00Z'
wind_gust_kt: '35'
sky_condition:
- sky_cover: OVX
wind_speed_kt: '20'
fcst_time_from: '2024-04-22T20:00:00Z'
wind_dir_degrees: '290'
visibility_statute_mi: '0.5'

TEMPO 2220/2306 1SM OVC2000

---
wx_string: "-SN"
fcst_time_to: '2024-04-23T06:00:00Z'
sky_condition:
- sky_cover: OVC
  cloud_base_ft_agl: '2000'
fcst_time_from: '2024-04-22T20:00:00Z'
change_indicator: TEMPO
visibility_statute_mi: '1'

FM230600 29015G25KT 1SM OVX

---
wx_string: "-SN"
vert_vis_ft: '1500'
fcst_time_to: '2024-04-23T08:00:00Z'
wind_gust_kt: '25'
sky_condition:
- sky_cover: OVX
wind_speed_kt: '15'
fcst_time_from: '2024-04-23T06:00:00Z'
change_indicator: FM
wind_dir_degrees: '290'
visibility_statute_mi: '1'

talk